METAR Data
IDs: Format: Raw Decoded Include TAF

Data at: 0133 UTC 29 May 2022

EGLF 290120Z AUTO 36003KT 9999 NCD 08/03 Q1022